sensor_id;sensor_type;location;lat;lon;timestamp;pressure;altitude;pressure_sealevel;temperature
14023;BMP180;7086;48.116;11.580;2022-11-15T00:00:13;95251.00;;;9.80
14023;BMP180;7086;48.116;11.580;2022-11-15T00:02:45;95231.00;;;9.80
14023;BMP180;7086;48.116;11.580;2022-11-15T00:05:19;95247.00;;;9.50
14023;BMP180;7086;48.116;11.580;2022-11-15T00:08:01;95238.00;;;9.80
14023;BMP180;7086;48.116;11.580;2022-11-15T00:11:10;95215.00;;;9.80
14023;BMP180;7086;48.116;11.580;2022-11-15T00:13:49;95209.00;;;9.70
14023;BMP180;7086;48.116;11.580;2022-11-15T00:16:23;95223.00;;;9.80
14023;BMP180;7086;48.116;11.580;2022-11-15T00:18:58;95229.00;;;9.80
14023;BMP180;7086;48.116;11.580;2022-11-15T00:22:00;95238.00;;;9.80
14023;BMP180;7086;48.116;11.580;2022-11-15T00:27:22;95233.00;;;9.70
14023;BMP180;7086;48.116;11.580;2022-11-15T00:30:29;95233.00;;;9.70
14023;BMP180;7086;48.116;11.580;2022-11-15T00:33:19;95230.00;;;9.70
14023;BMP180;7086;48.116;11.580;2022-11-15T00:36:06;95240.00;;;9.40
14023;BMP180;7086;48.116;11.580;2022-11-15T00:38:54;95159.00;;;9.50
14023;BMP180;7086;48.116;11.580;2022-11-15T00:41:32;95189.00;;;9.70
14023;BMP180;7086;48.116;11.580;2022-11-15T00:46:58;95122.00;;;9.50
14023;BMP180;7086;48.116;11.580;2022-11-15T00:52:44;95202.00;;;9.50
14023;BMP180;7086;48.116;11.580;2022-11-15T00:55:18;95202.00;;;9.40
14023;BMP180;7086;48.116;11.580;2022-11-15T00:57:58;95223.00;;;9.50
14023;BMP180;7086;48.116;11.580;2022-11-15T01:00:28;95175.00;;;9.50
14023;BMP180;7086;48.116;11.580;2022-11-15T01:02:57;95191.00;;;9.50
14023;BMP180;7086;48.116;11.580;2022-11-15T01:05:25;95186.00;;;9.50
14023;BMP180;7086;48.116;11.580;2022-11-15T01:07:57;95146.00;;;9.10
14023;BMP180;7086;48.116;11.580;2022-11-15T01:10:27;95150.00;;;9.50
14023;BMP180;7086;48.116;11.580;2022-11-15T01:12:57;95170.00;;;9.40
14023;BMP180;7086;48.116;11.580;2022-11-15T01:15:27;95170.00;;;9.40
14023;BMP180;7086;48.116;11.580;2022-11-15T01:17:59;95064.00;;;9.40
14023;BMP180;7086;48.116;11.580;2022-11-15T01:20:28;95163.00;;;9.40
14023;BMP180;7086;48.116;11.580;2022-11-15T01:22:56;95171.00;;;9.40
14023;BMP180;7086;48.116;11.580;2022-11-15T01:25:26;95165.00;;;9.40
14023;BMP180;7086;48.116;11.580;2022-11-15T01:27:54;95156.00;;;9.30
14023;BMP180;7086;48.116;11.580;2022-11-15T01:30:21;95159.00;;;9.30
14023;BMP180;7086;48.116;11.580;2022-11-15T01:32:49;95160.00;;;9.30
14023;BMP180;7086;48.116;11.580;2022-11-15T01:35:21;95138.00;;;9.20
14023;BMP180;7086;48.116;11.580;2022-11-15T01:37:49;95136.00;;;9.20
14023;BMP180;7086;48.116;11.580;2022-11-15T01:40:16;95140.00;;;9.20
14023;BMP180;7086;48.116;11.580;2022-11-15T01:42:44;95143.00;;;9.20
14023;BMP180;7086;48.116;11.580;2022-11-15T01:45:14;95156.00;;;9.20
14023;BMP180;7086;48.116;11.580;2022-11-15T01:47:48;95138.00;;;9.00
14023;BMP180;7086;48.116;11.580;2022-11-15T01:50:24;95131.00;;;9.20
14023;BMP180;7086;48.116;11.580;2022-11-15T01:52:54;95098.00;;;9.10
14023;BMP180;7086;48.116;11.580;2022-11-15T01:55:25;95090.00;;;9.10
14023;BMP180;7086;48.116;11.580;2022-11-15T01:57:59;95102.00;;;9.10
14023;BMP180;7086;48.116;11.580;2022-11-15T02:00:40;95036.00;;;9.10
14023;BMP180;7086;48.116;11.580;2022-11-15T02:03:26;95158.00;;;9.10
14023;BMP180;7086;48.116;11.580;2022-11-15T02:05:58;95157.00;;;8.40
14023;BMP180;7086;48.116;11.580;2022-11-15T02:08:27;95118.00;;;9.10
14023;BMP180;7086;48.116;11.580;2022-11-15T02:11:15;94964.00;;;8.80
14023;BMP180;7086;48.116;11.580;2022-11-15T02:13:47;95098.00;;;9.10
14023;BMP180;7086;48.116;11.580;2022-11-15T02:16:35;95001.00;;;9.10
14023;BMP180;7086;48.116;11.580;2022-11-15T02:19:35;95045.00;;;8.50
14023;BMP180;7086;48.116;11.580;2022-11-15T02:22:30;95121.00;;;9.00
14023;BMP180;7086;48.116;11.580;2022-11-15T02:25:37;94993.00;;;8.60
14023;BMP180;7086;48.116;11.580;2022-11-15T02:28:44;95094.00;;;8.80
14023;BMP180;7086;48.116;11.580;2022-11-15T02:31:32;95118.00;;;8.80
14023;BMP180;7086;48.116;11.580;2022-11-15T02:34:26;95051.00;;;8.80
14023;BMP180;7086;48.116;11.580;2022-11-15T02:37:08;95028.00;;;8.90
14023;BMP180;7086;48.116;11.580;2022-11-15T02:39:56;95150.00;;;8.40
14023;BMP180;7086;48.116;11.580;2022-11-15T02:42:40;94989.00;;;8.80
14023;BMP180;7086;48.116;11.580;2022-11-15T02:45:30;95103.00;;;8.80
14023;BMP180;7086;48.116;11.580;2022-11-15T02:48:06;95047.00;;;8.60
14023;BMP180;7086;48.116;11.580;2022-11-15T02:50:50;94999.00;;;8.90
14023;BMP180;7086;48.116;11.580;2022-11-15T02:53:34;95058.00;;;8.70
14023;BMP180;7086;48.116;11.580;2022-11-15T02:56:09;95115.00;;;8.60
14023;BMP180;7086;48.116;11.580;2022-11-15T02:59:21;95090.00;;;8.80
14023;BMP180;7086;48.116;11.580;2022-11-15T03:02:11;95092.00;;;8.80
14023;BMP180;7086;48.116;11.580;2022-11-15T03:04:53;95117.00;;;8.80
14023;BMP180;7086;48.116;11.580;2022-11-15T03:07:30;95111.00;;;8.80
14023;BMP180;7086;48.116;11.580;2022-11-15T03:10:06;95094.00;;;8.80
14023;BMP180;7086;48.116;11.580;2022-11-15T03:12:42;95065.00;;;8.60
14023;BMP180;7086;48.116;11.580;2022-11-15T03:15:19;95083.00;;;8.80
14023;BMP180;7086;48.116;11.580;2022-11-15T03:17:55;95022.00;;;8.80
14023;BMP180;7086;48.116;11.580;2022-11-15T03:20:28;95079.00;;;8.80
14023;BMP180;7086;48.116;11.580;2022-11-15T03:23:03;95056.00;;;8.30
14023;BMP180;7086;48.116;11.580;2022-11-15T03:25:45;94976.00;;;8.60
14023;BMP180;7086;48.116;11.580;2022-11-15T03:32:11;94996.00;;;8.20
14023;BMP180;7086;48.116;11.580;2022-11-15T03:34:46;95053.00;;;8.70
14023;BMP180;7086;48.116;11.580;2022-11-15T03:37:30;94962.00;;;8.60
14023;BMP180;7086;48.116;11.580;2022-11-15T03:40:03;95082.00;;;8.60
14023;BMP180;7086;48.116;11.580;2022-11-15T03:45:43;94982.00;;;8.70
14023;BMP180;7086;48.116;11.580;2022-11-15T03:48:21;95025.00;;;8.70
14023;BMP180;7086;48.116;11.580;2022-11-15T03:50:59;95054.00;;;8.70
14023;BMP180;7086;48.116;11.580;2022-11-15T03:53:31;94897.00;;;8.50
14023;BMP180;7086;48.116;11.580;2022-11-15T03:56:21;94951.00;;;8.50
14023;BMP180;7086;48.116;11.580;2022-11-15T03:59:47;95041.00;;;8.60
14023;BMP180;7086;48.116;11.580;2022-11-15T04:02:34;95037.00;;;8.60
14023;BMP180;7086;48.116;11.580;2022-11-15T04:05:02;95036.00;;;8.60
14023;BMP180;7086;48.116;11.580;2022-11-15T04:07:30;95035.00;;;8.60
14023;BMP180;7086;48.116;11.580;2022-11-15T04:09:59;94974.00;;;8.60
14023;BMP180;7086;48.116;11.580;2022-11-15T04:12:29;95024.00;;;8.60
14023;BMP180;7086;48.116;11.580;2022-11-15T04:15:02;95055.00;;;8.60
14023;BMP180;7086;48.116;11.580;2022-11-15T04:17:39;94977.00;;;8.60
14023;BMP180;7086;48.116;11.580;2022-11-15T04:20:10;94992.00;;;8.60
14023;BMP180;7086;48.116;11.580;2022-11-15T04:22:57;95023.00;;;8.50
14023;BMP180;7086;48.116;11.580;2022-11-15T04:25:44;95032.00;;;8.40
14023;BMP180;7086;48.116;11.580;2022-11-15T04:28:12;94996.00;;;8.50
14023;BMP180;7086;48.116;11.580;2022-11-15T04:30:39;95020.00;;;8.40
14023;BMP180;7086;48.116;11.580;2022-11-15T04:33:07;95019.00;;;8.40
14023;BMP180;7086;48.116;11.580;2022-11-15T04:35:34;95002.00;;;8.40
14023;BMP180;7086;48.116;11.580;2022-11-15T04:38:07;95013.00;;;8.40
14023;BMP180;7086;48.116;11.580;2022-11-15T04:40:34;94954.00;;;8.40
14023;BMP180;7086;48.116;11.580;2022-11-15T04:43:04;94967.00;;;8.40
14023;BMP180;7086;48.116;11.580;2022-11-15T04:45:31;95008.00;;;8.40
14023;BMP180;7086;48.116;11.580;2022-11-15T04:47:59;95002.00;;;8.40
14023;BMP180;7086;48.116;11.580;2022-11-15T04:50:26;95004.00;;;8.40
14023;BMP180;7086;48.116;11.580;2022-11-15T04:52:54;95004.00;;;8.40
14023;BMP180;7086;48.116;11.580;2022-11-15T04:55:21;95018.00;;;8.40
14023;BMP180;7086;48.116;11.580;2022-11-15T04:57:58;94907.00;;;8.40
14023;BMP180;7086;48.116;11.580;2022-11-15T05:00:29;95013.00;;;8.40
14023;BMP180;7086;48.116;11.580;2022-11-15T05:02:57;94971.00;;;8.40
14023;BMP180;7086;48.116;11.580;2022-11-15T05:05:42;95009.00;;;8.40
14023;BMP180;7086;48.116;11.580;2022-11-15T05:08:10;94987.00;;;8.40
14023;BMP180;7086;48.116;11.580;2022-11-15T05:10:37;95005.00;;;8.40
14023;BMP180;7086;48.116;11.580;2022-11-15T05:13:05;94984.00;;;8.40
14023;BMP180;7086;48.116;11.580;2022-11-15T05:15:34;94928.00;;;8.40
14023;BMP180;7086;48.116;11.580;2022-11-15T05:18:01;94987.00;;;8.40
14023;BMP180;7086;48.116;11.580;2022-11-15T05:20:29;94977.00;;;8.40
14023;BMP180;7086;48.116;11.580;2022-11-15T05:22:57;94999.00;;;8.40
14023;BMP180;7086;48.116;11.580;2022-11-15T05:25:25;94973.00;;;8.40
14023;BMP180;7086;48.116;11.580;2022-11-15T05:27:52;94938.00;;;8.40
14023;BMP180;7086;48.116;11.580;2022-11-15T05:30:20;94978.00;;;8.40
14023;BMP180;7086;48.116;11.580;2022-11-15T05:32:50;94968.00;;;8.30
14023;BMP180;7086;48.116;11.580;2022-11-15T05:35:30;94959.00;;;8.40
14023;BMP180;7086;48.116;11.580;2022-11-15T05:37:59;94958.00;;;8.40
14023;BMP180;7086;48.116;11.580;2022-11-15T05:40:27;94955.00;;;8.40
14023;BMP180;7086;48.116;11.580;2022-11-15T05:43:00;94955.00;;;8.40
14023;BMP180;7086;48.116;11.580;2022-11-15T05:45:29;94994.00;;;8.40
14023;BMP180;7086;48.116;11.580;2022-11-15T05:48:05;94956.00;;;8.40
14023;BMP180;7086;48.116;11.580;2022-11-15T05:50:43;94942.00;;;8.40
14023;BMP180;7086;48.116;11.580;2022-11-15T05:53:16;94899.00;;;8.40
14023;BMP180;7086;48.116;11.580;2022-11-15T05:55:46;94922.00;;;8.40
14023;BMP180;7086;48.116;11.580;2022-11-15T05:58:13;94956.00;;;8.40
14023;BMP180;7086;48.116;11.580;2022-11-15T06:00:41;94950.00;;;8.40
14023;BMP180;7086;48.116;11.580;2022-11-15T06:03:11;94969.00;;;8.40
14023;BMP180;7086;48.116;11.580;2022-11-15T06:05:40;94952.00;;;8.40
14023;BMP180;7086;48.116;11.580;2022-11-15T06:08:08;94947.00;;;8.40
14023;BMP180;7086;48.116;11.580;2022-11-15T06:10:35;94940.00;;;8.40
14023;BMP180;7086;48.116;11.580;2022-11-15T06:13:04;94911.00;;;8.40
14023;BMP180;7086;48.116;11.580;2022-11-15T06:15:33;94923.00;;;8.30
14023;BMP180;7086;48.116;11.580;2022-11-15T06:18:01;94955.00;;;8.30
14023;BMP180;7086;48.116;11.580;2022-11-15T06:20:31;94920.00;;;8.30
14023;BMP180;7086;48.116;11.580;2022-11-15T06:22:59;94951.00;;;8.30
14023;BMP180;7086;48.116;11.580;2022-11-15T06:25:29;94895.00;;;8.40
14023;BMP180;7086;48.116;11.580;2022-11-15T06:28:01;94824.00;;;8.30
14023;BMP180;7086;48.116;11.580;2022-11-15T06:30:29;94942.00;;;8.40
14023;BMP180;7086;48.116;11.580;2022-11-15T06:33:01;94934.00;;;8.30
14023;BMP180;7086;48.116;11.580;2022-11-15T06:35:33;94893.00;;;8.40
14023;BMP180;7086;48.116;11.580;2022-11-15T06:38:04;94778.00;;;8.40
14023;BMP180;7086;48.116;11.580;2022-11-15T06:40:34;94911.00;;;8.40
14023;BMP180;7086;48.116;11.580;2022-11-15T06:43:08;94955.00;;;8.50
14023;BMP180;7086;48.116;11.580;2022-11-15T06:48:41;94946.00;;;8.50
14023;BMP180;7086;48.116;11.580;2022-11-15T06:51:10;94929.00;;;8.50
14023;BMP180;7086;48.116;11.580;2022-11-15T06:53:37;94948.00;;;8.50
14023;BMP180;7086;48.116;11.580;2022-11-15T06:56:07;94908.00;;;8.50
14023;BMP180;7086;48.116;11.580;2022-11-15T06:58:36;94964.00;;;8.60
14023;BMP180;7086;48.116;11.580;2022-11-15T07:01:07;94965.00;;;8.60
14023;BMP180;7086;48.116;11.580;2022-11-15T07:03:36;94925.00;;;8.60
14023;BMP180;7086;48.116;11.580;2022-11-15T07:06:05;94955.00;;;8.60
14023;BMP180;7086;48.116;11.580;2022-11-15T07:08:35;94961.00;;;8.60
14023;BMP180;7086;48.116;11.580;2022-11-15T07:11:06;94961.00;;;8.60
14023;BMP180;7086;48.116;11.580;2022-11-15T07:13:34;94957.00;;;8.70
14023;BMP180;7086;48.116;11.580;2022-11-15T07:16:04;94951.00;;;8.80
14023;BMP180;7086;48.116;11.580;2022-11-15T07:18:34;94937.00;;;8.90
14023;BMP180;7086;48.116;11.580;2022-11-15T07:21:05;94954.00;;;8.80
14023;BMP180;7086;48.116;11.580;2022-11-15T07:23:36;94907.00;;;9.00
14023;BMP180;7086;48.116;11.580;2022-11-15T07:26:05;94967.00;;;9.00
14023;BMP180;7086;48.116;11.580;2022-11-15T07:28:42;94965.00;;;9.10
14023;BMP180;7086;48.116;11.580;2022-11-15T07:31:11;94909.00;;;9.20
14023;BMP180;7086;48.116;11.580;2022-11-15T07:33:39;94966.00;;;9.30
14023;BMP180;7086;48.116;11.580;2022-11-15T07:36:09;94972.00;;;9.40
14023;BMP180;7086;48.116;11.580;2022-11-15T07:38:41;94928.00;;;9.50
14023;BMP180;7086;48.116;11.580;2022-11-15T07:41:10;94990.00;;;9.50
14023;BMP180;7086;48.116;11.580;2022-11-15T08:10:52;94936.00;;;13.70
14023;BMP180;7086;48.116;11.580;2022-11-15T08:13:20;94922.00;;;14.60
14023;BMP180;7086;48.116;11.580;2022-11-15T08:15:50;94916.00;;;15.40
14023;BMP180;7086;48.116;11.580;2022-11-15T08:18:18;94891.00;;;16.20
14023;BMP180;7086;48.116;11.580;2022-11-15T08:20:47;94912.00;;;16.90
14023;BMP180;7086;48.116;11.580;2022-11-15T08:23:25;94883.00;;;17.50
14023;BMP180;7086;48.116;11.580;2022-11-15T08:26:01;94905.00;;;17.90
14023;BMP180;7086;48.116;11.580;2022-11-15T08:28:33;94882.00;;;18.60
14023;BMP180;7086;48.116;11.580;2022-11-15T08:31:02;94874.00;;;18.90
14023;BMP180;7086;48.116;11.580;2022-11-15T08:33:32;94825.00;;;19.20
14023;BMP180;7086;48.116;11.580;2022-11-15T08:36:01;94803.00;;;19.50
14023;BMP180;7086;48.116;11.580;2022-11-15T08:38:29;94866.00;;;19.70
14023;BMP180;7086;48.116;11.580;2022-11-15T08:41:04;94873.00;;;20.00
14023;BMP180;7086;48.116;11.580;2022-11-15T08:43:32;94865.00;;;20.30
14023;BMP180;7086;48.116;11.580;2022-11-15T08:46:00;94853.00;;;20.60
14023;BMP180;7086;48.116;11.580;2022-11-15T08:48:29;94869.00;;;20.90
14023;BMP180;7086;48.116;11.580;2022-11-15T08:50:58;94841.00;;;21.20
14023;BMP180;7086;48.116;11.580;2022-11-15T08:53:31;94872.00;;;21.70
14023;BMP180;7086;48.116;11.580;2022-11-15T08:56:00;94881.00;;;22.00
14023;BMP180;7086;48.116;11.580;2022-11-15T08:58:29;94882.00;;;22.50
14023;BMP180;7086;48.116;11.580;2022-11-15T09:00:57;94885.00;;;22.90
14023;BMP180;7086;48.116;11.580;2022-11-15T09:03:27;94878.00;;;23.10
14023;BMP180;7086;48.116;11.580;2022-11-15T09:05:56;94842.00;;;23.80
14023;BMP180;7086;48.116;11.580;2022-11-15T09:08:24;94882.00;;;24.30
14023;BMP180;7086;48.116;11.580;2022-11-15T09:10:52;94881.00;;;24.70
14023;BMP180;7086;48.116;11.580;2022-11-15T09:13:22;94875.00;;;24.80
14023;BMP180;7086;48.116;11.580;2022-11-15T09:15:51;94847.00;;;24.70
14023;BMP180;7086;48.116;11.580;2022-11-15T09:18:19;94875.00;;;24.30
14023;BMP180;7086;48.116;11.580;2022-11-15T09:20:48;94854.00;;;23.70
14023;BMP180;7086;48.116;11.580;2022-11-15T09:23:17;94859.00;;;23.00
14023;BMP180;7086;48.116;11.580;2022-11-15T09:25:45;94841.00;;;22.40
14023;BMP180;7086;48.116;11.580;2022-11-15T09:28:13;94857.00;;;21.80
14023;BMP180;7086;48.116;11.580;2022-11-15T09:30:43;94854.00;;;21.30
14023;BMP180;7086;48.116;11.580;2022-11-15T09:33:12;94865.00;;;21.20
14023;BMP180;7086;48.116;11.580;2022-11-15T09:35:40;94854.00;;;21.30
14023;BMP180;7086;48.116;11.580;2022-11-15T09:38:18;94817.00;;;21.60
14023;BMP180;7086;48.116;11.580;2022-11-15T09:40:52;94780.00;;;21.90
14023;BMP180;7086;48.116;11.580;2022-11-15T09:43:32;94841.00;;;22.30
14023;BMP180;7086;48.116;11.580;2022-11-15T09:46:15;94784.00;;;22.60
14023;BMP180;7086;48.116;11.580;2022-11-15T09:48:54;94776.00;;;22.70
14023;BMP180;7086;48.116;11.580;2022-11-15T09:51:30;94829.00;;;22.80
14023;BMP180;7086;48.116;11.580;2022-11-15T09:54:09;94789.00;;;22.90
14023;BMP180;7086;48.116;11.580;2022-11-15T09:56:42;94781.00;;;23.00
14023;BMP180;7086;48.116;11.580;2022-11-15T09:59:37;94823.00;;;22.90
14023;BMP180;7086;48.116;11.580;2022-11-15T10:02:27;94818.00;;;22.80
14023;BMP180;7086;48.116;11.580;2022-11-15T10:04:59;94821.00;;;23.30
14023;BMP180;7086;48.116;11.580;2022-11-15T10:07:37;94788.00;;;23.60
14023;BMP180;7086;48.116;11.580;2022-11-15T10:10:31;94781.00;;;23.80
14023;BMP180;7086;48.116;11.580;2022-11-15T10:13:00;94769.00;;;23.90
14023;BMP180;7086;48.116;11.580;2022-11-15T10:15:32;94754.00;;;24.00
14023;BMP180;7086;48.116;11.580;2022-11-15T10:18:16;94798.00;;;24.10
14023;BMP180;7086;48.116;11.580;2022-11-15T10:20:51;94698.00;;;24.40
14023;BMP180;7086;48.116;11.580;2022-11-15T10:23:23;94765.00;;;24.60
14023;BMP180;7086;48.116;11.580;2022-11-15T10:25:54;94740.00;;;24.70
14023;BMP180;7086;48.116;11.580;2022-11-15T10:28:28;94781.00;;;24.90
14023;BMP180;7086;48.116;11.580;2022-11-15T10:31:01;94810.00;;;25.10
14023;BMP180;7086;48.116;11.580;2022-11-15T10:33:35;94781.00;;;25.30
14023;BMP180;7086;48.116;11.580;2022-11-15T10:36:20;94784.00;;;25.40
14023;BMP180;7086;48.116;11.580;2022-11-15T10:38:58;94789.00;;;25.60
14023;BMP180;7086;48.116;11.580;2022-11-15T10:41:39;94703.00;;;25.80
14023;BMP180;7086;48.116;11.580;2022-11-15T10:44:42;94763.00;;;25.90
14023;BMP180;7086;48.116;11.580;2022-11-15T10:47:29;94729.00;;;25.90
14023;BMP180;7086;48.116;11.580;2022-11-15T10:50:29;94754.00;;;25.70
14023;BMP180;7086;48.116;11.580;2022-11-15T10:53:00;94761.00;;;25.60
14023;BMP180;7086;48.116;11.580;2022-11-15T10:55:32;94757.00;;;25.60
14023;BMP180;7086;48.116;11.580;2022-11-15T10:58:04;94701.00;;;25.60
14023;BMP180;7086;48.116;11.580;2022-11-15T11:00:36;94783.00;;;25.50
14023;BMP180;7086;48.116;11.580;2022-11-15T11:03:34;94680.00;;;25.30
14023;BMP180;7086;48.116;11.580;2022-11-15T11:06:13;94656.00;;;25.30
14023;BMP180;7086;48.116;11.580;2022-11-15T11:08:57;94741.00;;;25.30
14023;BMP180;7086;48.116;11.580;2022-11-15T11:11:46;94718.00;;;25.60
14023;BMP180;7086;48.116;11.580;2022-11-15T11:14:23;94703.00;;;25.60
14023;BMP180;7086;48.116;11.580;2022-11-15T11:17:05;94691.00;;;25.40
14023;BMP180;7086;48.116;11.580;2022-11-15T11:19:49;94710.00;;;25.10
14023;BMP180;7086;48.116;11.580;2022-11-15T11:22:34;94709.00;;;24.50
14023;BMP180;7086;48.116;11.580;2022-11-15T11:25:22;94721.00;;;24.40
14023;BMP180;7086;48.116;11.580;2022-11-15T11:28:26;94675.00;;;24.50
14023;BMP180;7086;48.116;11.580;2022-11-15T11:31:20;94636.00;;;24.30
14023;BMP180;7086;48.116;11.580;2022-11-15T11:34:08;94644.00;;;24.20
14023;BMP180;7086;48.116;11.580;2022-11-15T11:36:46;94688.00;;;24.10
14023;BMP180;7086;48.116;11.580;2022-11-15T11:39:39;94710.00;;;24.40
14023;BMP180;7086;48.116;11.580;2022-11-15T11:42:17;94582.00;;;24.50
14023;BMP180;7086;48.116;11.580;2022-11-15T11:45:05;94652.00;;;24.40
14023;BMP180;7086;48.116;11.580;2022-11-15T11:47:47;94693.00;;;24.10
14023;BMP180;7086;48.116;11.580;2022-11-15T11:50:52;94627.00;;;24.30
14023;BMP180;7086;48.116;11.580;2022-11-15T11:53:32;94634.00;;;24.00
14023;BMP180;7086;48.116;11.580;2022-11-15T11:56:25;94667.00;;;23.50
14023;BMP180;7086;48.116;11.580;2022-11-15T11:59:00;94677.00;;;23.00
14023;BMP180;7086;48.116;11.580;2022-11-15T12:01:40;94688.00;;;22.40
14023;BMP180;7086;48.116;11.580;2022-11-15T12:04:30;94606.00;;;21.80
14023;BMP180;7086;48.116;11.580;2022-11-15T12:07:19;94673.00;;;21.30
14023;BMP180;7086;48.116;11.580;2022-11-15T12:10:15;94641.00;;;20.80
14023;BMP180;7086;48.116;11.580;2022-11-15T12:12:55;94649.00;;;20.50
14023;BMP180;7086;48.116;11.580;2022-11-15T12:15:31;94654.00;;;20.20
14023;BMP180;7086;48.116;11.580;2022-11-15T12:18:01;94626.00;;;19.70
14023;BMP180;7086;48.116;11.580;2022-11-15T12:20:36;94652.00;;;19.40
14023;BMP180;7086;48.116;11.580;2022-11-15T12:23:13;94646.00;;;19.40
14023;BMP180;7086;48.116;11.580;2022-11-15T12:26:04;94560.00;;;19.20
14023;BMP180;7086;48.116;11.580;2022-11-15T12:28:40;94579.00;;;19.10
14023;BMP180;7086;48.116;11.580;2022-11-15T12:31:15;94582.00;;;19.00
14023;BMP180;7086;48.116;11.580;2022-11-15T12:33:46;94625.00;;;18.90
14023;BMP180;7086;48.116;11.580;2022-11-15T12:36:36;94615.00;;;18.60
14023;BMP180;7086;48.116;11.580;2022-11-15T12:39:07;94631.00;;;18.50
14023;BMP180;7086;48.116;11.580;2022-11-15T12:42:39;94668.00;;;18.60
14023;BMP180;7086;48.116;11.580;2022-11-15T12:45:40;94616.00;;;18.50
14023;BMP180;7086;48.116;11.580;2022-11-15T12:48:56;94628.00;;;18.50
14023;BMP180;7086;48.116;11.580;2022-11-15T12:52:05;94586.00;;;18.50
14023;BMP180;7086;48.116;11.580;2022-11-15T12:55:25;94526.00;;;18.40
14023;BMP180;7086;48.116;11.580;2022-11-15T12:57:52;94625.00;;;18.50
14023;BMP180;7086;48.116;11.580;2022-11-15T13:00:39;94568.00;;;18.50
14023;BMP180;7086;48.116;11.580;2022-11-15T13:03:27;94555.00;;;18.50
14023;BMP180;7086;48.116;11.580;2022-11-15T13:06:33;94584.00;;;18.60
14023;BMP180;7086;48.116;11.580;2022-11-15T13:09:00;94607.00;;;18.60
14023;BMP180;7086;48.116;11.580;2022-11-15T13:11:53;94607.00;;;18.60
14023;BMP180;7086;48.116;11.580;2022-11-15T13:14:52;94577.00;;;18.70
14023;BMP180;7086;48.116;11.580;2022-11-15T13:17:37;94616.00;;;18.70
14023;BMP180;7086;48.116;11.580;2022-11-15T13:20:28;94534.00;;;18.70
14023;BMP180;7086;48.116;11.580;2022-11-15T13:23:07;94621.00;;;18.70
14023;BMP180;7086;48.116;11.580;2022-11-15T13:28:44;94602.00;;;18.60
14023;BMP180;7086;48.116;11.580;2022-11-15T13:31:35;94619.00;;;18.30
14023;BMP180;7086;48.116;11.580;2022-11-15T13:34:24;94588.00;;;18.60
14023;BMP180;7086;48.116;11.580;2022-11-15T13:36:54;94545.00;;;18.60
14023;BMP180;7086;48.116;11.580;2022-11-15T13:39:29;94469.00;;;18.50
14023;BMP180;7086;48.116;11.580;2022-11-15T13:42:03;94600.00;;;18.70
14023;BMP180;7086;48.116;11.580;2022-11-15T13:44:34;94585.00;;;18.30
14023;BMP180;7086;48.116;11.580;2022-11-15T13:47:05;94550.00;;;18.60
14023;BMP180;7086;48.116;11.580;2022-11-15T13:49:35;94566.00;;;18.60
14023;BMP180;7086;48.116;11.580;2022-11-15T13:52:07;94602.00;;;18.60
14023;BMP180;7086;48.116;11.580;2022-11-15T13:54:40;94536.00;;;18.60
14023;BMP180;7086;48.116;11.580;2022-11-15T13:57:15;94602.00;;;18.50
14023;BMP180;7086;48.116;11.580;2022-11-15T13:59:51;94582.00;;;18.50
14023;BMP180;7086;48.116;11.580;2022-11-15T14:02:29;94574.00;;;18.60
14023;BMP180;7086;48.116;11.580;2022-11-15T14:05:14;94584.00;;;18.60
14023;BMP180;7086;48.116;11.580;2022-11-15T14:08:00;94587.00;;;18.60
14023;BMP180;7086;48.116;11.580;2022-11-15T14:10:33;94535.00;;;18.50
14023;BMP180;7086;48.116;11.580;2022-11-15T14:13:03;94526.00;;;18.30
14023;BMP180;7086;48.116;11.580;2022-11-15T14:15:37;94616.00;;;18.50
14023;BMP180;7086;48.116;11.580;2022-11-15T14:18:44;94524.00;;;18.40
14023;BMP180;7086;48.116;11.580;2022-11-15T14:21:20;94538.00;;;18.40
14023;BMP180;7086;48.116;11.580;2022-11-15T14:24:22;94606.00;;;18.40
14023;BMP180;7086;48.116;11.580;2022-11-15T14:27:32;94596.00;;;18.30
14023;BMP180;7086;48.116;11.580;2022-11-15T14:30:00;94536.00;;;18.20
14023;BMP180;7086;48.116;11.580;2022-11-15T14:32:36;94623.00;;;18.30
14023;BMP180;7086;48.116;11.580;2022-11-15T14:35:16;94572.00;;;18.30
14023;BMP180;7086;48.116;11.580;2022-11-15T14:38:11;94563.00;;;18.20
14023;BMP180;7086;48.116;11.580;2022-11-15T14:40:40;94532.00;;;18.30
14023;BMP180;7086;48.116;11.580;2022-11-15T14:43:10;94580.00;;;17.90
14023;BMP180;7086;48.116;11.580;2022-11-15T14:45:43;94635.00;;;18.20
14023;BMP180;7086;48.116;11.580;2022-11-15T14:48:13;94593.00;;;18.20
14023;BMP180;7086;48.116;11.580;2022-11-15T14:50:41;94589.00;;;18.20
14023;BMP180;7086;48.116;11.580;2022-11-15T14:53:18;94614.00;;;18.10
14023;BMP180;7086;48.116;11.580;2022-11-15T14:55:48;94594.00;;;18.10
14023;BMP180;7086;48.116;11.580;2022-11-15T14:58:18;94589.00;;;18.10
14023;BMP180;7086;48.116;11.580;2022-11-15T15:00:47;94580.00;;;18.00
14023;BMP180;7086;48.116;11.580;2022-11-15T15:03:15;94578.00;;;18.00
14023;BMP180;7086;48.116;11.580;2022-11-15T15:05:45;94584.00;;;17.90
14023;BMP180;7086;48.116;11.580;2022-11-15T15:08:19;94605.00;;;17.90
14023;BMP180;7086;48.116;11.580;2022-11-15T15:10:48;94581.00;;;17.80
14023;BMP180;7086;48.116;11.580;2022-11-15T15:13:22;94596.00;;;17.70
14023;BMP180;7086;48.116;11.580;2022-11-15T15:15:54;94580.00;;;17.70
14023;BMP180;7086;48.116;11.580;2022-11-15T15:18:22;94581.00;;;17.70
14023;BMP180;7086;48.116;11.580;2022-11-15T15:20:57;94581.00;;;17.60
14023;BMP180;7086;48.116;11.580;2022-11-15T15:23:34;94576.00;;;17.50
14023;BMP180;7086;48.116;11.580;2022-11-15T15:28:46;94578.00;;;17.20
14023;BMP180;7086;48.116;11.580;2022-11-15T15:31:25;94597.00;;;17.30
14023;BMP180;7086;48.116;11.580;2022-11-15T15:33:54;94575.00;;;17.30
14023;BMP180;7086;48.116;11.580;2022-11-15T15:36:23;94553.00;;;17.20
14023;BMP180;7086;48.116;11.580;2022-11-15T15:39:04;94566.00;;;17.10
14023;BMP180;7086;48.116;11.580;2022-11-15T15:41:47;94573.00;;;17.00
14023;BMP180;7086;48.116;11.580;2022-11-15T15:44:32;94586.00;;;16.90
14023;BMP180;7086;48.116;11.580;2022-11-15T15:47:35;94576.00;;;16.80
14023;BMP180;7086;48.116;11.580;2022-11-15T15:50:27;94532.00;;;16.60
14023;BMP180;7086;48.116;11.580;2022-11-15T15:53:03;94523.00;;;16.60
14023;BMP180;7086;48.116;11.580;2022-11-15T15:56:11;94614.00;;;16.50
14023;BMP180;7086;48.116;11.580;2022-11-15T15:58:56;94477.00;;;16.40
14023;BMP180;7086;48.116;11.580;2022-11-15T16:01:41;94569.00;;;16.20